Report METAR

 

LIML - Milano/Linate, Italy
Distance from station: E 6km
Dati ricevuti: 20/11/2019 01:50
Light drizzle, Nuvoloso
Light drizzle, Nuvoloso
 Vento da S
Vento: S 2 km/h
Temperatura: 9°C
P.to Rugiada: 9°C
Umidità: 100%
Barometro: 1015 hPa
Summary: Light Drizzle
Nuvole: Molto nuvoloso
Visibility: 3 km
Cloud details: Few Clouds 91 m
Molto nuvoloso 305 m
Molto nuvoloso 762 m
2019/11/20 00:50 LIML 200050Z 18001KT 3000 -DZ FEW003 BKN010 BKN025 09/09 Q1015 REDZ NOSIG
LIMC - Milano/Malpensa, Italy
Distance from station: ONO 40km
Dati ricevuti: 20/11/2019 01:50
Pioggia, Coperto
Pioggia, Coperto
 Vento da NNE
Vento: NNE 13 km/h
Temperatura: 8°C
Temperatura Vento: 6°C
P.to Rugiada: 8°C
Umidità: 100%
Barometro: 1015 hPa
Summary: Pioggia
Nuvole: Coperto
Visibility: 6 km
Cloud details: Molto nuvoloso 366 m
Coperto 671 m
2019/11/20 00:50 LIMC 200050Z 02007KT 6000 RA BKN012 OVC022 08/08 Q1015 NOSIG
 
LIMN - Cameri (it-Afb), Italy
Distance from station: O 41km
Dati ricevuti: 19/11/2019 18:55
DATI Obsoleti
Pioviggine, Mist, Coperto
Pioviggine, Mist, Coperto
 Vento da NNO
Vento: NNO 13 km/h
Temperatura: 8°C
Temperatura Vento: 6°C
P.to Rugiada: 7°C
Umidità: 93%
Barometro: 1015 hPa
Summary: Pioviggine, Mist
Nuvole: Coperto
Visibility: 2 km
Cloud details: Coperto 518 m
2019/11/19 17:55 LIMN 191755Z 34007KT 2000 DZ BR OVC017 08/07 Q1015 RMK OVC VIS MIN 2000 YLO
LIME - Bergamo/Orio Ser, Italy
Distance from station: ENE 45km
Dati ricevuti: 20/11/2019 01:50
Mist, Nuvoloso
Mist, Nuvoloso
 Vento da Variabile
Vento: Variabile 2 km/h
Temperatura: 9°C
P.to Rugiada: 9°C
Umidità: 100%
Barometro: 1015 hPa
Summary: Mist
Nuvole: Molto nuvoloso
Visibility: 4 km
Cloud details: Molto nuvoloso 762 m
2019/11/20 00:50 LIME 200050Z VRB01KT 4000 BR BKN025 09/09 Q1015 NOSIG